createdAt,value
2017-06-16T04:54:44.411Z,50
2017-06-16T04:55:45.829Z,50
2017-06-16T04:57:07.493Z,55
2017-06-16T04:58:08.909Z,55
2017-06-16T04:59:30.517Z,55
2017-06-16T05:00:31.932Z,55
2017-06-16T05:01:53.511Z,60
2017-06-16T05:02:54.926Z,60
2017-06-16T05:04:16.526Z,60
2017-06-16T05:05:17.938Z,60
2017-06-16T05:06:39.524Z,60
2017-06-16T05:07:40.942Z,60
2017-06-16T05:09:03.576Z,60
2017-06-16T05:10:05.005Z,60
2017-06-16T05:11:26.587Z,60
2017-06-16T05:12:27.999Z,65
2017-06-16T05:13:49.589Z,65
2017-06-16T05:14:51.011Z,65
2017-06-16T05:16:12.547Z,65
2017-06-16T05:17:13.969Z,65
2017-06-16T05:18:35.592Z,65
2017-06-16T05:19:37.024Z,65
2017-06-16T05:20:58.632Z,65
2017-06-16T05:22:00.052Z,65
2017-06-16T05:23:21.626Z,70
2017-06-16T05:24:23.041Z,70
2017-06-16T05:25:44.644Z,70
2017-06-16T05:26:46.061Z,70
2017-06-16T05:28:07.650Z,70
2017-06-16T05:29:09.066Z,70
2017-06-16T05:30:33.690Z,70
2017-06-16T06:45:10.467Z,10
2017-06-16T06:46:21.495Z,0
2017-06-16T06:47:22.913Z,0
2017-06-16T06:48:13.404Z,0
2017-06-16T06:49:14.818Z,0
2017-06-16T06:50:36.349Z,560
2017-06-16T06:51:38.334Z,735
2017-06-16T06:53:00.133Z,760
2017-06-16T06:54:01.919Z,800
2017-06-16T06:55:03.709Z,805
2017-06-16T06:56:05.432Z,830
2017-06-16T06:57:06.840Z,855
2017-06-16T06:58:49.189Z,780
2017-06-16T06:59:50.976Z,775
2017-06-16T07:00:52.776Z,740
2017-06-16T07:01:54.167Z,710
2017-06-16T07:02:55.953Z,675
2017-06-16T07:03:57.916Z,665
2017-06-16T07:05:40.280Z,675
2017-06-16T07:06:42.552Z,690
2017-06-16T07:07:45.263Z,680
2017-06-16T07:08:46.885Z,685
2017-06-16T07:09:49.577Z,775
2017-06-16T07:10:51.620Z,790
2017-06-16T07:12:33.932Z,845
2017-06-16T07:13:35.803Z,900
2017-06-16T07:14:37.616Z,890
2017-06-16T07:15:39.455Z,865
2017-06-16T07:16:41.401Z,825
2017-06-16T07:17:44.049Z,800
2017-06-16T07:18:47.462Z,805
2017-06-16T07:20:30.017Z,760
2017-06-16T07:21:31.784Z,695
2017-06-16T07:22:53.654Z,665
2017-06-16T07:30:11.450Z,740
2017-06-16T07:31:13.291Z,780
2017-06-16T07:32:15.365Z,805
2017-06-16T07:33:17.143Z,835
2017-06-16T07:34:19.776Z,815
2017-06-16T07:35:26.493Z,800
2017-06-16T07:36:28.561Z,800
2017-06-16T07:37:30.314Z,825
2017-06-16T07:38:32.077Z,840
2017-06-16T07:39:33.867Z,865
2017-06-16T07:40:35.668Z,910
2017-06-16T07:41:37.046Z,980
2017-06-16T07:42:38.845Z,985
2017-06-16T07:43:40.654Z,995
2017-06-16T07:44:42.522Z,940
2017-06-16T07:45:44.319Z,890
2017-06-16T07:46:46.147Z,770
2017-06-16T07:47:48.353Z,835
2017-06-16T07:48:50.144Z,1030
2017-06-16T07:49:52.768Z,1040
2017-06-16T07:50:55.058Z,940
2017-06-16T07:51:56.799Z,895
2017-06-16T07:52:59.065Z,860
2017-06-16T07:54:01.036Z,830
2017-06-16T07:55:05.210Z,955
2017-06-16T07:56:07.826Z,915
2017-06-16T07:57:09.730Z,970
2017-06-16T07:58:11.538Z,930
2017-06-16T07:59:13.657Z,860
2017-06-16T08:00:15.576Z,885
2017-06-16T08:01:17.623Z,925
2017-06-16T08:02:19.676Z,905
2017-06-16T08:03:22.731Z,830
2017-06-16T08:04:28.048Z,845
2017-06-16T08:05:30.567Z,895
2017-06-16T08:06:32.984Z,990
2017-06-16T08:07:35.208Z,1050
2017-06-16T08:09:09.274Z,20
2017-06-16T08:10:10.998Z,20
2017-06-16T08:13:53.467Z,5
2017-06-16T08:14:47.607Z,265
2017-06-16T08:15:49.240Z,1000
2017-06-16T08:16:50.955Z,990
2017-06-16T08:17:52.484Z,1020
2017-06-16T08:18:53.727Z,1015
2017-06-16T08:20:34.807Z,1035
2017-06-16T08:21:36.413Z,1060
2017-06-16T08:22:38.025Z,1045
2017-06-16T08:23:39.607Z,965
2017-06-16T08:24:41.120Z,930
2017-06-16T08:25:43.658Z,1070
2017-06-16T08:26:44.638Z,1115
2017-06-16T08:27:46.189Z,1050
2017-06-16T08:28:48.205Z,1160
2017-06-16T08:29:49.318Z,1075
2017-06-16T08:30:50.935Z,1070
2017-06-16T08:31:52.350Z,1080
2017-06-16T08:32:54.810Z,980
2017-06-16T08:33:56.239Z,890
2017-06-16T08:34:57.924Z,780
2017-06-16T08:35:59.540Z,740
2017-06-16T08:37:01.185Z,740
2017-06-16T08:38:02.806Z,765
2017-06-16T08:39:04.384Z,800
2017-06-16T08:40:05.616Z,830
2017-06-16T08:41:07.219Z,850
2017-06-16T08:42:08.890Z,850
2017-06-16T08:43:10.497Z,865
2017-06-16T08:44:15.667Z,1380
2017-06-16T08:45:19.102Z,645
2017-06-16T08:46:20.682Z,585
2017-06-16T08:47:22.428Z,550
2017-06-16T08:48:23.560Z,500
2017-06-16T08:49:25.280Z,460
2017-06-16T08:50:28.048Z,455
2017-06-16T08:51:29.633Z,485
2017-06-16T08:52:31.165Z,615
2017-06-16T08:53:32.728Z,755
2017-06-16T08:54:34.367Z,1560
2017-06-16T08:55:35.968Z,855
2017-06-16T08:56:37.204Z,855
2017-06-16T08:57:39.772Z,910
2017-06-16T08:58:41.841Z,965
2017-06-16T08:59:43.543Z,1015
2017-06-16T09:00:46.006Z,1070
2017-06-16T09:01:48.596Z,1170
2017-06-16T09:02:50.518Z,1230
2017-06-16T09:03:52.583Z,1240
2017-06-16T09:04:54.987Z,1875
2017-06-16T09:05:56.455Z,1755
2017-06-16T09:06:58.012Z,1625
2017-06-16T09:08:00.484Z,1755
2017-06-16T09:09:02.813Z,2125
2017-06-16T09:10:04.714Z,930
2017-06-16T09:11:06.794Z,1450
2017-06-16T09:12:08.376Z,2135
2017-06-16T09:13:50.076Z,2085
2017-06-16T09:14:51.852Z,2230
2017-06-16T09:16:13.441Z,2345
2017-06-16T09:17:14.651Z,1165
2017-06-16T09:18:16.243Z,1020
2017-06-16T09:19:17.811Z,2320
2017-06-16T09:20:19.393Z,2340
2017-06-16T09:21:20.965Z,2430
2017-06-16T09:22:22.526Z,2525
2017-06-16T09:23:24.162Z,2570
2017-06-16T09:24:25.715Z,1535
2017-06-16T09:25:27.390Z,2115
2017-06-16T09:27:09.545Z,1035
2017-06-16T09:28:11.085Z,1015
2017-06-16T09:29:12.658Z,985
2017-06-16T09:30:14.218Z,975
2017-06-16T09:31:56.309Z,995
2017-06-16T09:37:33.965Z,960
2017-06-16T09:38:35.544Z,965
2017-06-16T09:39:57.836Z,955
2017-06-16T09:40:59.517Z,910
2017-06-16T09:42:01.114Z,885
2017-06-16T09:43:02.684Z,845
2017-06-16T09:44:04.212Z,815
2017-06-16T09:45:45.286Z,840
2017-06-16T09:46:46.857Z,880
2017-06-16T09:47:48.078Z,1805
2017-06-16T09:48:50.437Z,1070
2017-06-16T09:49:52.024Z,1065
2017-06-16T09:51:34.574Z,2310
2017-06-16T09:52:36.579Z,1600
2017-06-16T09:53:38.345Z,1385
2017-06-16T09:54:39.607Z,2265
2017-06-16T09:55:41.614Z,1220
2017-06-16T09:57:22.926Z,975
2017-06-16T09:58:26.335Z,1075
2017-06-16T09:59:28.345Z,1465
2017-06-16T10:00:29.884Z,1755
2017-06-16T10:01:32.308Z,1995
2017-06-16T10:03:13.709Z,1270
2017-06-16T10:04:15.323Z,1565
2017-06-16T10:05:36.997Z,885
2017-06-16T10:06:38.948Z,865
2017-06-16T10:07:41.378Z,640
2017-06-16T10:08:43.463Z,535
2017-06-16T10:09:45.475Z,470
2017-06-16T10:11:28.333Z,385
2017-06-16T10:43:51.116Z,0
2017-06-16T10:44:52.384Z,0
2017-06-16T10:46:06.248Z,0
2017-06-16T10:53:55.291Z,0
2017-06-16T10:54:56.543Z,0
2017-06-16T10:55:57.805Z,0
2017-06-16T11:07:24.181Z,0
2017-06-16T11:08:25.687Z,10
2017-06-16T11:09:27.223Z,5
2017-06-16T11:10:28.864Z,5
2017-06-16T11:11:30.378Z,10
2017-06-16T11:13:11.900Z,5
2017-06-16T11:14:13.407Z,5
2017-06-16T11:15:16.859Z,5
2017-06-16T11:16:18.731Z,5
2017-06-16T11:17:20.209Z,5
2017-06-16T11:19:01.981Z,5
2017-06-16T11:20:04.084Z,10
2017-06-16T11:21:06.169Z,10
2017-06-16T11:22:09.462Z,5
2017-06-16T11:23:10.977Z,10
2017-06-16T11:24:51.174Z,10
2017-06-16T11:25:52.655Z,5
2017-06-16T11:26:55.398Z,5
2017-06-16T11:27:56.927Z,5
2017-06-16T11:28:58.474Z,5
2017-06-16T11:30:39.452Z,635
2017-06-16T11:31:40.979Z,670
2017-06-16T11:32:42.480Z,680
2017-06-16T11:33:43.982Z,625
2017-06-16T11:34:45.567Z,605
2017-06-16T11:36:26.609Z,660
2017-06-16T11:37:28.114Z,720
2017-06-16T11:38:29.631Z,2840
2017-06-16T11:39:37.050Z,860
2017-06-16T11:40:38.657Z,955
2017-06-16T11:42:19.581Z,1090
2017-06-16T11:43:21.103Z,1100
2017-06-16T11:44:22.601Z,1145
2017-06-16T11:45:24.265Z,1190
2017-06-16T11:46:25.797Z,1190
2017-06-16T11:47:27.346Z,1220
2017-06-16T11:48:28.836Z,1485
2017-06-16T11:49:30.364Z,955
2017-06-16T11:50:31.988Z,890
2017-06-16T11:52:15.142Z,770
2017-06-16T11:53:16.652Z,710
2017-06-16T11:54:18.269Z,685
2017-06-16T11:55:20.081Z,675
2017-06-16T11:56:27.648Z,680
2017-06-16T11:58:08.584Z,695
2017-06-16T11:59:10.304Z,735
2017-06-16T12:00:11.828Z,850
2017-06-16T12:01:13.604Z,960
2017-06-16T12:02:15.206Z,1070
2017-06-16T12:03:16.728Z,1170
2017-06-16T12:04:18.281Z,1290
2017-06-16T12:05:21.333Z,1120
2017-06-16T12:06:22.872Z,1020
2017-06-16T12:07:28.303Z,1020
2017-06-16T12:08:29.825Z,1025
2017-06-16T12:09:31.387Z,1055
2017-06-16T12:10:32.895Z,1090
2017-06-16T12:11:34.689Z,910
2017-06-16T12:12:36.181Z,785
2017-06-16T12:13:37.693Z,705
2017-06-16T12:14:44.001Z,660
2017-06-16T12:15:45.765Z,635
2017-06-16T12:16:48.680Z,600
2017-06-16T12:17:50.219Z,585
2017-06-16T12:18:51.725Z,595
2017-06-16T12:19:53.431Z,600
2017-06-16T12:20:57.558Z,630
2017-06-16T12:22:00.553Z,720
2017-06-16T12:23:04.563Z,780
2017-06-16T12:24:05.994Z,970
2017-06-16T12:25:07.519Z,1360
2017-06-16T12:26:09.037Z,1275
2017-06-16T12:27:10.703Z,1305
2017-06-16T12:28:12.407Z,1330
2017-06-16T12:29:13.925Z,1350
2017-06-16T12:30:15.404Z,1310
2017-06-16T12:31:16.910Z,1285
2017-06-16T12:32:19.039Z,1270
2017-06-16T12:33:21.728Z,1255
2017-06-16T12:34:23.249Z,1315
2017-06-16T12:35:24.771Z,1355
2017-06-16T12:36:26.274Z,1695
2017-06-16T12:37:27.793Z,4310
2017-06-16T12:38:29.486Z,3340
2017-06-16T12:39:30.976Z,2905
2017-06-16T12:40:32.496Z,2310
2017-06-16T12:41:34.097Z,4180
2017-06-16T12:42:35.625Z,1385
2017-06-16T12:43:37.094Z,825
2017-06-16T12:44:38.904Z,590
2017-06-16T12:45:40.401Z,470
2017-06-16T12:46:41.978Z,375
2017-06-16T12:47:43.530Z,310
2017-06-16T12:48:45.039Z,255
2017-06-16T12:49:47.046Z,225
2017-06-16T12:50:48.561Z,205
2017-06-16T12:51:50.083Z,200
2017-06-16T12:52:51.601Z,195
2017-06-16T12:53:53.141Z,205
2017-06-16T12:54:54.762Z,220
2017-06-16T12:55:56.292Z,215
2017-06-16T12:56:57.808Z,225
2017-06-16T12:57:59.345Z,240
2017-06-16T12:59:00.855Z,265
2017-06-16T13:00:02.350Z,285
2017-06-16T13:01:03.842Z,330
2017-06-16T13:02:05.330Z,390
2017-06-16T13:03:06.933Z,465
2017-06-16T13:04:08.454Z,550
2017-06-16T13:05:10.035Z,705
2017-06-16T13:06:15.178Z,1435
2017-06-16T13:07:17.889Z,1005
2017-06-16T13:08:19.384Z,840
2017-06-16T13:09:20.872Z,1410
2017-06-16T13:10:22.377Z,540
2017-06-16T13:11:24.704Z,405
2017-06-16T13:12:26.381Z,295
2017-06-16T13:13:27.905Z,235
2017-06-16T13:14:29.388Z,210
2017-06-16T13:15:30.899Z,205
2017-06-16T13:16:37.476Z,250
2017-06-16T13:17:39.034Z,300
2017-06-16T13:18:40.589Z,360
2017-06-16T13:19:44.115Z,435
2017-06-16T13:20:45.587Z,550
2017-06-16T13:21:47.091Z,665
2017-06-16T13:22:48.747Z,745
2017-06-16T13:23:50.618Z,840
2017-06-16T13:24:52.217Z,1210
2017-06-16T13:26:33.149Z,1610
2017-06-16T13:27:34.687Z,925
2017-06-16T13:28:41.161Z,875
2017-06-16T13:29:42.896Z,885
2017-06-16T13:30:44.440Z,890
2017-06-16T13:31:45.935Z,920
2017-06-16T13:32:47.424Z,880
2017-06-16T13:33:48.915Z,790
2017-06-16T13:34:50.404Z,715
2017-06-16T13:35:51.892Z,400
2017-06-16T13:37:32.868Z,35
2017-06-16T13:38:34.320Z,35
2017-06-16T13:39:35.793Z,35
2017-06-16T13:40:37.286Z,35
2017-06-16T13:41:39.059Z,40
2017-06-16T13:42:40.527Z,40
2017-06-16T13:43:41.968Z,45
2017-06-16T13:44:43.420Z,50
2017-06-16T13:45:49.821Z,55
2017-06-16T13:46:52.935Z,65
2017-06-16T13:47:55.309Z,70
2017-06-16T13:48:56.841Z,80
2017-06-16T13:49:58.805Z,90
2017-06-16T13:51:00.299Z,95
2017-06-16T13:52:05.191Z,95
2017-06-16T13:53:07.481Z,85
2017-06-16T13:54:09.622Z,90
2017-06-16T13:55:12.026Z,85
2017-06-16T13:56:13.562Z,80
2017-06-16T13:57:15.981Z,75
2017-06-16T13:58:17.463Z,75
2017-06-16T13:59:19.068Z,70
2017-06-16T14:00:20.822Z,70
2017-06-16T14:01:25.083Z,70
2017-06-16T14:02:26.999Z,75
2017-06-16T14:03:28.537Z,85
2017-06-16T14:04:31.380Z,95
2017-06-16T14:05:32.890Z,105
2017-06-16T14:06:35.412Z,125
2017-06-16T14:07:37.029Z,130
2017-06-16T14:08:40.976Z,135
2017-06-16T14:09:42.878Z,125
2017-06-16T14:10:45.603Z,120
2017-06-16T14:11:48.216Z,120
2017-06-16T14:12:49.756Z,125
2017-06-16T14:13:51.220Z,120
2017-06-16T14:14:52.682Z,125
2017-06-16T14:15:54.143Z,115
2017-06-16T14:16:55.648Z,105
2017-06-16T14:17:57.175Z,100
2017-06-16T14:18:58.657Z,100
2017-06-16T14:20:00.125Z,105
2017-06-16T14:21:01.608Z,110
2017-06-16T14:22:03.115Z,115
2017-06-16T14:23:04.574Z,115
2017-06-16T14:24:06.062Z,120
2017-06-16T14:25:07.537Z,120
2017-06-16T14:26:09.115Z,120
2017-06-16T14:27:10.615Z,120
2017-06-16T14:28:12.087Z,110
2017-06-16T14:29:13.628Z,105
2017-06-16T14:30:15.086Z,100
2017-06-16T14:31:16.549Z,90
2017-06-16T14:32:18.018Z,85
2017-06-16T14:33:19.469Z,85
2017-06-16T14:34:20.921Z,90
2017-06-16T14:35:22.386Z,95
2017-06-16T14:36:23.864Z,100
2017-06-16T14:37:25.397Z,100
2017-06-16T14:38:26.871Z,100
2017-06-16T14:39:28.354Z,95
2017-06-16T14:40:29.838Z,100
2017-06-16T14:41:31.320Z,100
2017-06-16T14:42:32.813Z,110
2017-06-16T14:43:34.377Z,115
2017-06-16T14:44:35.870Z,115
2017-06-16T14:45:37.451Z,110
2017-06-16T14:46:39.031Z,105
2017-06-16T14:47:40.535Z,90
2017-06-16T14:48:42.044Z,75
2017-06-16T14:49:43.519Z,65
2017-06-16T14:50:44.976Z,65
2017-06-16T14:51:46.438Z,60
2017-06-16T14:52:47.932Z,60
2017-06-16T14:53:49.421Z,65
2017-06-16T14:54:50.892Z,75
2017-06-16T14:55:52.353Z,85
2017-06-16T14:56:53.828Z,90
2017-06-16T14:57:55.346Z,90
2017-06-16T14:58:56.817Z,95
2017-06-16T14:59:58.274Z,95
2017-06-16T15:00:59.750Z,90
2017-06-16T15:02:01.218Z,90
2017-06-16T15:03:02.714Z,90
2017-06-16T15:04:04.201Z,90
2017-06-16T15:05:05.657Z,100
2017-06-16T15:06:07.125Z,95
2017-06-16T15:07:08.595Z,95
2017-06-16T15:08:10.081Z,100
2017-06-16T15:09:11.562Z,105
2017-06-16T15:10:13.011Z,105
2017-06-16T15:11:14.482Z,105
2017-06-16T15:12:15.944Z,115
2017-06-16T15:13:17.435Z,105
2017-06-16T15:14:18.895Z,105
2017-06-16T15:15:20.347Z,105
2017-06-16T15:16:21.800Z,105
2017-06-16T15:17:23.251Z,105
2017-06-16T15:18:24.753Z,110
2017-06-16T15:19:26.207Z,110
2017-06-16T15:20:28.839Z,110
2017-06-16T15:21:31.205Z,110
2017-06-16T15:22:33.013Z,110
2017-06-16T15:23:34.515Z,110
2017-06-16T15:24:36.005Z,115
2017-06-16T15:25:37.454Z,115
2017-06-16T15:26:38.908Z,110
2017-06-16T15:27:40.377Z,110
2017-06-16T15:28:41.860Z,105
2017-06-16T15:29:43.315Z,100
2017-06-16T15:30:44.777Z,95
2017-06-16T15:31:46.242Z,95
2017-06-16T15:32:47.744Z,95
2017-06-16T15:33:49.225Z,95
2017-06-16T15:34:50.695Z,100
2017-06-16T15:35:52.172Z,105
2017-06-16T15:36:53.619Z,110
2017-06-16T15:37:55.096Z,110
2017-06-16T15:38:56.585Z,110
2017-06-16T15:39:58.042Z,110
2017-06-16T15:40:59.498Z,110
2017-06-16T15:42:00.964Z,105
2017-06-16T15:43:02.417Z,100
2017-06-16T15:44:03.913Z,100
2017-06-16T15:45:05.385Z,100
2017-06-16T15:46:06.857Z,100
2017-06-16T15:47:08.315Z,95
2017-06-16T15:48:09.793Z,90
2017-06-16T15:49:11.304Z,85
2017-06-16T15:50:12.786Z,85
2017-06-16T15:51:14.248Z,85
2017-06-16T15:52:15.711Z,80
2017-06-16T15:53:17.169Z,75
2017-06-16T15:54:18.666Z,75
2017-06-16T15:55:20.123Z,75
2017-06-16T15:56:21.583Z,70
2017-06-16T15:57:23.039Z,70
2017-06-16T15:58:24.512Z,65
2017-06-16T15:59:26.016Z,70
2017-06-16T16:00:27.477Z,75
2017-06-16T16:01:28.943Z,75
2017-06-16T16:02:30.426Z,75
2017-06-16T16:03:31.879Z,70
2017-06-16T16:04:33.374Z,70
2017-06-16T16:05:34.824Z,70
2017-06-16T16:06:36.369Z,70
2017-06-16T16:07:37.819Z,65
2017-06-16T16:08:39.283Z,60
2017-06-16T16:09:40.759Z,60
2017-06-16T16:10:42.213Z,55
2017-06-16T16:11:43.674Z,50
2017-06-16T16:12:45.137Z,50
2017-06-16T16:13:46.593Z,45
2017-06-16T16:14:48.099Z,45
2017-06-16T16:15:49.561Z,45
2017-06-16T16:16:51.010Z,45
2017-06-16T16:17:52.470Z,45
2017-06-16T16:18:53.920Z,45
2017-06-16T16:19:55.425Z,45
2017-06-16T16:20:56.875Z,45
2017-06-16T16:21:58.327Z,50
2017-06-16T16:22:59.826Z,50
2017-06-16T16:24:01.307Z,50
2017-06-16T16:25:02.792Z,50
2017-06-16T16:26:04.257Z,55
2017-06-16T16:27:05.711Z,60
2017-06-16T16:28:07.182Z,60
2017-06-16T16:29:08.655Z,60
2017-06-16T16:30:10.149Z,60
2017-06-16T16:31:12.578Z,65
2017-06-16T16:32:14.040Z,65
2017-06-16T16:33:15.506Z,70
2017-06-16T16:34:17.255Z,70
2017-06-16T16:35:18.740Z,70
2017-06-16T16:36:20.203Z,80
2017-06-16T16:37:21.690Z,80
2017-06-16T16:38:23.151Z,80
2017-06-16T16:39:24.662Z,80
2017-06-16T16:40:26.146Z,80
2017-06-16T16:41:27.630Z,85
2017-06-16T16:42:29.085Z,90
2017-06-16T16:43:30.563Z,90
2017-06-16T16:44:32.026Z,85
2017-06-16T16:45:33.500Z,75
2017-06-16T16:46:34.978Z,80
2017-06-16T16:47:36.414Z,75
2017-06-16T16:48:37.880Z,85
2017-06-16T16:49:39.359Z,95
2017-06-16T16:50:40.859Z,90
2017-06-16T16:51:42.333Z,90
2017-06-16T16:52:43.804Z,90
2017-06-16T16:53:45.292Z,90
2017-06-16T16:54:46.762Z,85
2017-06-16T16:55:48.265Z,85
2017-06-16T16:56:49.755Z,80
2017-06-16T16:57:51.221Z,70
2017-06-16T16:58:52.707Z,70
2017-06-16T16:59:54.184Z,70
2017-06-16T17:00:55.823Z,75
2017-06-16T17:01:57.290Z,75
2017-06-16T17:02:58.778Z,80
2017-06-16T17:04:00.256Z,75
2017-06-16T17:05:01.719Z,75
2017-06-16T17:06:03.224Z,70
2017-06-16T17:07:04.718Z,65
2017-06-16T17:08:06.213Z,60
2017-06-16T17:09:07.682Z,60
2017-06-16T17:10:09.172Z,60
2017-06-16T17:11:11.276Z,65
2017-06-16T17:12:12.757Z,60
2017-06-16T17:13:14.239Z,60
2017-06-16T17:14:15.699Z,65
2017-06-16T17:15:17.203Z,65
2017-06-16T17:16:18.738Z,70
2017-06-16T17:17:20.440Z,65
2017-06-16T17:18:21.921Z,60
2017-06-16T17:19:23.418Z,60
2017-06-16T17:20:24.886Z,55
2017-06-16T17:21:26.789Z,55
2017-06-16T17:22:28.260Z,60
2017-06-16T17:23:29.761Z,55
2017-06-16T17:24:31.343Z,55
2017-06-16T17:25:32.813Z,55
2017-06-16T17:26:34.328Z,55
2017-06-16T17:27:35.786Z,60
2017-06-16T17:28:37.254Z,60
2017-06-16T17:29:38.741Z,65
2017-06-16T17:30:40.352Z,65
2017-06-16T17:31:41.860Z,65
2017-06-16T17:32:43.345Z,65
2017-06-16T17:33:44.825Z,65
2017-06-16T17:34:46.292Z,65
2017-06-16T17:35:47.765Z,65
2017-06-16T17:36:49.248Z,65
2017-06-16T17:37:50.723Z,65
2017-06-16T17:38:52.197Z,65
2017-06-16T17:39:56.251Z,60
2017-06-16T17:40:57.796Z,65
2017-06-16T17:41:59.301Z,70
2017-06-16T17:43:00.770Z,75
2017-06-16T17:44:02.262Z,80
2017-06-16T17:45:03.738Z,85
2017-06-16T17:46:05.353Z,90
2017-06-16T17:47:06.868Z,90
2017-06-16T17:48:08.393Z,95
2017-06-16T17:49:09.954Z,95
2017-06-16T17:50:11.415Z,95
2017-06-16T17:51:12.888Z,105
2017-06-16T17:52:14.394Z,110
2017-06-16T17:53:15.874Z,110
2017-06-16T17:54:17.408Z,110
2017-06-16T17:55:18.958Z,105
2017-06-16T17:56:22.844Z,100
2017-06-16T17:57:24.321Z,100
2017-06-16T17:58:25.838Z,100
2017-06-16T17:59:27.368Z,110
2017-06-16T18:00:29.930Z,120
2017-06-16T18:01:32.734Z,135
2017-06-16T18:02:35.475Z,140
2017-06-16T18:03:36.798Z,145
2017-06-16T18:04:38.628Z,130
2017-06-16T18:05:40.140Z,160
2017-06-16T18:06:41.644Z,155
2017-06-16T18:07:43.145Z,160
2017-06-16T18:08:44.881Z,160
2017-06-16T18:09:46.831Z,150
2017-06-16T18:10:48.324Z,160
2017-06-16T18:11:49.862Z,155
2017-06-16T18:12:51.378Z,150
2017-06-16T18:13:56.211Z,130
2017-06-16T18:14:57.845Z,115
2017-06-16T18:15:59.349Z,110
2017-06-16T18:17:00.818Z,120
2017-06-16T18:18:02.362Z,120
2017-06-16T18:19:08.711Z,120
2017-06-16T18:20:11.451Z,115
2017-06-16T18:21:12.936Z,125
2017-06-16T18:22:14.410Z,125
2017-06-16T18:23:18.719Z,120
2017-06-16T18:24:20.638Z,120
2017-06-16T18:25:26.423Z,115
2017-06-16T18:27:43.551Z,115
2017-06-16T18:28:50.503Z,110
2017-06-16T18:29:55.479Z,115
2017-06-16T18:30:56.941Z,115
2017-06-16T18:32:03.478Z,120
2017-06-16T18:33:05.009Z,125
2017-06-16T18:34:08.052Z,115
2017-06-16T18:35:13.342Z,125
2017-06-16T18:36:19.311Z,140
2017-06-16T18:37:25.490Z,145
2017-06-16T18:38:29.883Z,150
2017-06-16T18:39:35.198Z,145
2017-06-16T18:40:39.097Z,155
2017-06-16T18:48:32.357Z,315
2017-06-16T18:49:33.818Z,130
2017-06-16T18:50:35.352Z,135
2017-06-16T18:51:41.923Z,110
2017-06-16T18:52:44.073Z,105
2017-06-16T18:53:45.592Z,105
2017-06-16T18:54:47.079Z,95
2017-06-16T18:55:48.590Z,85
2017-06-16T18:56:56.000Z,80
2017-06-16T18:57:57.612Z,75
2017-06-16T18:58:59.875Z,70
2017-06-16T19:00:01.379Z,70
2017-06-16T19:01:02.913Z,65
2017-06-16T19:02:05.918Z,60
2017-06-16T19:04:39.645Z,55
2017-06-16T19:05:41.249Z,55
2017-06-16T19:06:42.702Z,50
2017-06-16T19:07:44.164Z,45
2017-06-16T19:08:47.431Z,45
2017-06-16T19:09:48.923Z,40
2017-06-16T19:10:54.192Z,40
2017-06-16T19:11:55.759Z,40
2017-06-16T19:12:58.536Z,35
2017-06-16T19:13:59.980Z,35
2017-06-16T19:15:02.195Z,30
2017-06-16T19:16:05.977Z,25
2017-06-16T19:17:07.437Z,25
2017-06-16T19:18:08.868Z,25
2017-06-16T19:19:10.298Z,25
2017-06-16T19:20:13.010Z,25
2017-06-16T19:21:14.441Z,25
2017-06-16T19:22:16.026Z,25
2017-06-16T19:23:18.902Z,25
2017-06-16T19:24:20.340Z,25
2017-06-16T19:25:22.651Z,25
2017-06-16T19:26:24.125Z,25
2017-06-16T19:27:27.291Z,25
2017-06-16T19:28:29.376Z,20
2017-06-16T19:29:31.631Z,20
2017-06-16T19:30:34.090Z,20
2017-06-16T19:31:36.725Z,20
2017-06-16T19:32:38.886Z,20
2017-06-16T19:33:40.337Z,15
2017-06-16T19:34:41.820Z,15
2017-06-16T19:35:43.254Z,20
2017-06-16T19:36:49.389Z,20
2017-06-16T19:37:50.883Z,20
2017-06-16T19:38:52.358Z,20
2017-06-16T19:39:55.360Z,20
2017-06-16T19:40:56.790Z,15
2017-06-16T19:41:58.251Z,15
2017-06-16T19:42:59.907Z,15
2017-06-16T19:44:02.249Z,15
2017-06-16T19:45:03.949Z,15
2017-06-16T19:46:05.431Z,10
2017-06-16T19:47:07.473Z,10
2017-06-16T19:48:08.959Z,10
2017-06-16T19:49:11.209Z,10
2017-06-16T19:50:12.797Z,10
2017-06-16T19:51:14.356Z,5
2017-06-16T19:52:15.998Z,5
2017-06-16T19:53:17.673Z,5
2017-06-16T19:54:19.329Z,5
2017-06-16T19:55:20.765Z,5
2017-06-16T19:56:23.371Z,5
2017-06-16T19:57:26.729Z,5
2017-06-16T19:58:28.122Z,5
2017-06-16T19:59:29.552Z,5
2017-06-16T20:00:31.077Z,5
2017-06-16T20:01:33.568Z,5
2017-06-16T20:02:35.203Z,5
2017-06-16T20:03:36.639Z,5
2017-06-16T20:04:38.080Z,0
2017-06-16T20:05:40.777Z,0
2017-06-16T20:06:42.216Z,0
2017-06-16T20:07:43.706Z,0
2017-06-16T20:08:45.160Z,0
2017-06-16T20:09:46.696Z,0
2017-06-16T20:10:48.249Z,0
2017-06-16T20:11:49.950Z,0
2017-06-16T20:12:52.281Z,0
2017-06-16T20:13:53.735Z,0
2017-06-16T20:14:55.426Z,0
2017-06-16T20:15:57.076Z,0
2017-06-16T20:16:58.778Z,0
2017-06-16T20:18:00.495Z,0
2017-06-16T20:19:03.202Z,0
2017-06-16T20:20:05.555Z,0
2017-06-16T20:21:08.119Z,0
2017-06-16T20:22:09.874Z,0
2017-06-16T20:23:11.734Z,0
2017-06-16T20:24:13.165Z,0
2017-06-16T20:25:15.335Z,0
2017-06-16T20:26:16.863Z,0
2017-06-16T20:27:19.421Z,0
2017-06-16T20:28:20.883Z,0
2017-06-16T20:29:22.311Z,0
2017-06-16T20:30:23.802Z,0
2017-06-16T20:31:25.380Z,0
2017-06-16T20:32:27.126Z,0
2017-06-16T20:33:28.958Z,0
2017-06-16T20:34:30.389Z,0
2017-06-16T20:35:33.092Z,0
2017-06-16T20:36:34.666Z,0
2017-06-16T20:37:36.095Z,0
2017-06-16T20:38:37.557Z,0
2017-06-16T20:39:39.063Z,0
2017-06-16T20:40:40.496Z,0
2017-06-16T20:41:41.943Z,0
2017-06-16T20:42:43.389Z,0
2017-06-16T20:43:45.184Z,0
2017-06-16T20:44:46.613Z,0
2017-06-16T20:45:48.046Z,0
2017-06-16T20:46:49.472Z,0
2017-06-16T20:47:50.900Z,0
2017-06-16T20:48:53.694Z,0
2017-06-16T20:49:56.194Z,0
2017-06-16T20:50:58.725Z,0
2017-06-16T20:52:00.724Z,0
2017-06-16T20:53:02.207Z,0
2017-06-16T20:54:05.131Z,0
2017-06-16T20:55:07.309Z,0
2017-06-16T20:56:08.727Z,0
2017-06-16T20:57:10.160Z,0
2017-06-16T20:58:11.671Z,0
2017-06-16T20:59:13.126Z,0
2017-06-16T21:00:15.468Z,0
2017-06-16T21:01:17.191Z,0
2017-06-16T21:02:19.690Z,0
2017-06-16T21:03:22.153Z,0
2017-06-16T21:04:23.633Z,0
2017-06-16T21:05:26.110Z,0
2017-06-16T21:06:28.079Z,0
2017-06-16T21:07:29.783Z,0
2017-06-16T21:08:32.506Z,0
2017-06-16T21:09:33.961Z,0
2017-06-16T21:10:35.390Z,0
2017-06-16T21:11:36.815Z,0
2017-06-16T21:12:38.256Z,0
2017-06-16T21:13:39.688Z,0
2017-06-16T21:14:41.331Z,0
2017-06-16T21:15:42.759Z,0
2017-06-16T21:16:44.215Z,0
2017-06-16T21:17:46.942Z,0
2017-06-16T21:18:48.372Z,0
2017-06-16T21:19:49.823Z,0
2017-06-16T21:20:51.253Z,0
2017-06-16T21:21:52.688Z,0
2017-06-16T21:22:54.113Z,0
2017-06-16T21:23:59.698Z,0
2017-06-16T21:25:01.201Z,0
2017-06-16T21:26:03.559Z,0
2017-06-16T21:27:04.990Z,0
2017-06-16T21:28:06.423Z,0
2017-06-16T21:29:12.256Z,0
2017-06-16T21:30:13.665Z,0
2017-06-16T21:31:15.093Z,0
2017-06-16T21:32:18.300Z,0
2017-06-16T21:33:19.731Z,0
2017-06-16T21:34:21.158Z,0
2017-06-16T21:35:22.620Z,0
2017-06-16T21:36:24.260Z,0
2017-06-16T21:37:25.688Z,0
2017-06-16T21:38:27.115Z,0
2017-06-16T21:39:28.563Z,0
2017-06-16T21:40:30.023Z,0
2017-06-16T21:41:31.452Z,0
2017-06-16T21:42:32.881Z,0
2017-06-16T21:43:38.872Z,0
2017-06-16T21:44:40.259Z,0
2017-06-16T21:45:43.151Z,0
2017-06-16T21:46:46.634Z,0
2017-06-16T21:47:48.061Z,0
2017-06-16T21:48:49.489Z,0
2017-06-16T21:49:53.808Z,0
2017-06-16T21:50:55.219Z,0
2017-06-16T21:51:58.359Z,0
2017-06-16T21:52:59.980Z,0
2017-06-16T21:54:01.415Z,0
2017-06-16T21:55:02.844Z,0
2017-06-16T21:56:04.302Z,0
2017-06-16T21:57:06.635Z,0
2017-06-16T21:58:08.732Z,0
2017-06-16T21:59:10.111Z,0
2017-06-16T22:00:11.550Z,0
2017-06-16T22:01:13.004Z,0
2017-06-16T22:02:14.435Z,0
2017-06-16T22:03:15.865Z,0
2017-06-16T22:04:17.311Z,0
2017-06-16T22:05:18.739Z,0
2017-06-16T22:06:20.188Z,0
2017-06-16T22:07:21.619Z,0
2017-06-16T22:08:23.047Z,0
2017-06-16T22:09:24.475Z,0
2017-06-16T22:10:25.902Z,0
2017-06-16T22:11:27.360Z,0
2017-06-16T22:12:28.787Z,0